Matrincha, Brazil
Current Conditions -  °F | °C
As of 5:00 PM on Saturday 25 Oct 2014 (Local Time) from SBBW Reporting Station
Scattered Clouds Scattered Clouds  
Wind Chill: 86°   Ceiling: Unl
Heat Index: 89°   Visibility: 6mi
Dew Point: 68°   Wind: 5mph
Humidity: 55%   Direction: 220°SW
Pressure: 29.83"   Gusts: NA
Location:  15.44°S, 50.75°W
Report Text: SBBW 251900Z 22004KT 9999 FEW020 SCT100 30/20 Q1010
Loading
Personal Weather Stations






























Interactive Weather Map
Tropical Storm Tracking
New forecast layout! Learn more

10-Day Weather Forecast

Advertisements
Track Severe Weather on mobile